Time;durP1;ratioP1;P1;durP2;ratioP2;P2;SDS_P1;SDS_P2;PMS_P1;PMS_P2;Temp;Humidity;BMP_temperature;BMP_pressure;BME280_temperature;BME280_humidity;BME280_pressure;Samples;Min_cycle;Max_cycle;Signal;HPM_P1;HPM_P2
2021/07/04 00:00:32;;;;;;;3.83;3.53;;;20.80;99.90;;;;;;4951471;28;20209;-67
2021/07/04 00:03:00;;;;;;;3.72;3.42;;;20.80;99.90;;;;;;4948848;29;20239;-66
2021/07/04 00:05:29;;;;;;;4.00;3.70;;;20.70;99.90;;;;;;4950769;28;20201;-67
2021/07/04 00:07:56;;;;;;;4.20;3.85;;;20.70;99.90;;;;;;4949584;29;20284;-66
2021/07/04 00:10:27;;;;;;;4.15;3.75;;;20.70;99.90;;;;;;4963721;28;20256;-66
2021/07/04 00:12:54;;;;;;;4.75;3.60;;;20.70;99.90;;;;;;4951181;29;20637;-66
2021/07/04 00:15:23;;;;;;;3.97;3.67;;;20.70;99.90;;;;;;4950988;29;20197;-66
2021/07/04 00:17:50;;;;;;;3.60;3.30;;;20.70;99.90;;;;;;4942923;29;20283;-66
2021/07/04 00:20:20;;;;;;;3.75;3.45;;;20.70;99.90;;;;;;4951164;29;20228;-67
2021/07/04 00:22:48;;;;;;;4.10;3.80;;;20.60;99.90;;;;;;4942520;29;20240;-66
2021/07/04 00:25:18;;;;;;;4.63;4.22;;;20.60;99.90;;;;;;4951329;29;20233;-66
2021/07/04 00:27:47;;;;;;;4.70;4.30;;;20.60;99.90;;;;;;4951660;28;20280;-66
2021/07/04 00:30:16;;;;;;;4.30;3.90;;;20.50;99.90;;;;;;4946090;29;20201;-67
2021/07/04 00:32:43;;;;;;;4.32;3.88;;;20.50;99.90;;;;;;4950414;29;20299;-66
2021/07/04 00:35:12;;;;;;;4.30;3.90;;;20.50;99.90;;;;;;4950986;28;20232;-67
2021/07/04 00:37:39;;;;;;;3.80;3.50;;;20.50;99.90;;;;;;4951398;28;20197;-66
2021/07/04 00:40:08;;;;;;;4.03;3.72;;;20.50;99.90;;;;;;4950159;29;20268;-66
2021/07/04 00:42:37;;;;;;;3.97;3.67;;;20.50;99.90;;;;;;4949783;28;20271;-66
2021/07/04 00:45:08;;;;;;;4.88;4.00;;;20.40;99.90;;;;;;4946608;28;20209;-66
2021/07/04 00:47:35;;;;;;;3.90;3.60;;;20.40;99.90;;;;;;4965645;28;20212;-66
2021/07/04 00:50:03;;;;;;;3.80;3.50;;;20.40;99.90;;;;;;4965880;28;20596;-66
2021/07/04 00:52:30;;;;;;;3.60;3.30;;;20.40;99.90;;;;;;4957844;28;20227;-66
2021/07/04 00:54:58;;;;;;;4.07;3.78;;;20.40;99.90;;;;;;4943936;29;20550;-66
2021/07/04 00:57:26;;;;;;;3.47;3.22;;;20.30;99.90;;;;;;4946889;28;20204;-66
2021/07/04 00:59:53;;;;;;;3.83;3.53;;;20.30;99.90;;;;;;4944762;29;20228;-67
2021/07/04 01:02:22;;;;;;;4.13;3.72;;;20.30;99.90;;;;;;4948870;28;20221;-67
2021/07/04 01:04:50;;;;;;;3.85;3.55;;;20.30;99.90;;;;;;4948641;28;20658;-65
2021/07/04 01:07:17;;;;;;;4.80;4.22;;;20.30;99.90;;;;;;4950949;28;20193;-66
2021/07/04 01:09:45;;;;;;;4.72;4.28;;;20.30;99.90;;;;;;4950827;28;20705;-67
2021/07/04 01:12:12;;;;;;;4.72;4.32;;;20.30;99.90;;;;;;4950857;29;20311;-67
2021/07/04 01:14:39;;;;;;;4.90;4.35;;;20.30;99.90;;;;;;4949963;28;21407;-66
2021/07/04 01:17:07;;;;;;;4.20;3.90;;;20.30;99.90;;;;;;4951743;28;20228;-66
2021/07/04 01:19:36;;;;;;;5.20;4.65;;;20.30;99.90;;;;;;4952599;28;20264;-67
2021/07/04 01:22:04;;;;;;;4.93;4.53;;;20.30;99.90;;;;;;4954180;28;20213;-67
2021/07/04 01:24:35;;;;;;;4.45;4.10;;;20.20;99.90;;;;;;4952573;29;20201;-67
2021/07/04 01:27:03;;;;;;;5.28;4.78;;;20.20;99.90;;;;;;4954315;29;20720;-67
2021/07/04 01:29:30;;;;;;;4.18;3.78;;;20.20;99.90;;;;;;4952238;28;20292;-67
2021/07/04 01:31:57;;;;;;;4.45;4.05;;;20.20;99.90;;;;;;4953694;29;20225;-67
2021/07/04 01:34:25;;;;;;;4.03;3.72;;;20.30;99.90;;;;;;4952238;28;20575;-67
2021/07/04 01:36:52;;;;;;;4.10;3.80;;;20.30;99.90;;;;;;4969164;28;20205;-67
2021/07/04 01:39:20;;;;;;;4.15;3.85;;;20.40;99.90;;;;;;4952940;28;20209;-67
2021/07/04 01:41:56;;;;;;;3.60;3.40;;;20.40;99.90;;;;;;4968813;28;20237;-67
2021/07/04 01:44:27;;;;;;;3.47;3.17;;;20.40;99.90;;;;;;4957884;28;20271;-67
2021/07/04 01:46:54;;;;;;;3.58;3.28;;;20.50;99.90;;;;;;4953227;29;20247;-67
2021/07/04 01:49:25;;;;;;;3.88;3.58;;;20.50;99.90;;;;;;4952724;28;20205;-67
2021/07/04 01:51:54;;;;;;;3.10;2.90;;;20.50;99.90;;;;;;4952303;29;20229;-67
2021/07/04 01:54:29;;;;;;;3.75;3.45;;;20.50;99.90;;;;;;4959130;28;20204;-66
2021/07/04 01:56:59;;;;;;;3.53;3.30;;;20.50;99.90;;;;;;4952237;28;20232;-67
2021/07/04 01:59:27;;;;;;;3.72;3.42;;;20.70;99.90;;;;;;4952215;28;20212;-67
2021/07/04 02:02:14;;;;;;;3.38;3.17;;;20.70;99.90;;;;;;4945756;28;20206;-67
2021/07/04 02:04:45;;;;;;;3.63;3.40;;;20.70;99.90;;;;;;4951011;29;20209;-67
2021/07/04 02:07:22;;;;;;;3.90;3.60;;;20.80;99.90;;;;;;4953625;28;20211;-67
2021/07/04 02:09:53;;;;;;;3.83;3.53;;;20.80;99.90;;;;;;4951961;28;20272;-67
2021/07/04 02:12:26;;;;;;;3.50;3.20;;;20.90;99.90;;;;;;4952285;28;20780;-68
2021/07/04 02:14:55;;;;;;;3.13;2.92;;;20.90;99.90;;;;;;4951163;28;20236;-67
2021/07/04 02:17:44;;;;;;;3.72;3.20;;;20.90;99.90;;;;;;4950904;28;20268;-67
2021/07/04 02:20:35;;;;;;;6.88;4.47;;;20.90;99.90;;;;;;4989065;28;20715;-67
2021/07/04 02:23:28;;;;;;;3.50;3.30;;;21.00;99.90;;;;;;4968065;28;20196;-67
2021/07/04 02:26:20;;;;;;;3.67;3.42;;;21.00;99.90;;;;;;4987289;28;20216;-67
2021/07/04 02:28:52;;;;;;;3.45;3.15;;;21.00;99.90;;;;;;4973180;28;20211;-67
2021/07/04 02:31:33;;;;;;;4.95;3.38;;;21.00;99.90;;;;;;4966856;28;20782;-67
2021/07/04 02:34:01;;;;;;;3.10;2.90;;;21.00;99.90;;;;;;4988566;28;20204;-68
2021/07/04 02:36:34;;;;;;;3.33;3.08;;;21.00;99.90;;;;;;4973274;28;20208;-67
2021/07/04 02:39:09;;;;;;;3.10;2.90;;;21.00;99.90;;;;;;4973101;28;20207;-67
2021/07/04 02:41:37;;;;;;;3.10;2.90;;;21.00;99.90;;;;;;4972552;28;20318;-67
2021/07/04 02:44:06;;;;;;;3.33;3.08;;;21.00;99.90;;;;;;4970431;28;20774;-66
2021/07/04 02:46:33;;;;;;;4.13;3.72;;;21.00;99.90;;;;;;4971602;28;20611;-67
2021/07/04 02:49:00;;;;;;;3.65;3.38;;;21.10;99.90;;;;;;4988787;28;20290;-67
2021/07/04 02:51:28;;;;;;;3.67;3.38;;;21.10;99.90;;;;;;4972968;28;20743;-67
2021/07/04 02:53:58;;;;;;;3.13;2.92;;;21.10;99.90;;;;;;4972383;28;20226;-67
2021/07/04 02:56:26;;;;;;;3.38;3.15;;;21.10;99.90;;;;;;4972414;28;20204;-67
2021/07/04 02:58:53;;;;;;;2.90;2.70;;;21.20;99.90;;;;;;4947447;28;20221;-67
2021/07/04 03:01:22;;;;;;;3.15;2.95;;;21.20;99.90;;;;;;4966007;28;20681;-67
2021/07/04 03:03:50;;;;;;;3.13;2.92;;;21.20;99.90;;;;;;4966151;28;20198;-67
2021/07/04 03:06:19;;;;;;;2.33;2.22;;;21.20;99.90;;;;;;4950826;29;20332;-67
2021/07/04 03:08:47;;;;;;;3.40;3.10;;;21.20;99.90;;;;;;4967044;28;20570;-67
2021/07/04 03:11:19;;;;;;;3.22;3.03;;;21.20;99.90;;;;;;4950960;28;20226;-67
2021/07/04 03:13:46;;;;;;;3.80;3.50;;;21.20;99.90;;;;;;4950328;28;20597;-67
2021/07/04 03:16:14;;;;;;;4.63;4.18;;;21.20;99.90;;;;;;4950394;28;20465;-67
2021/07/04 03:18:45;;;;;;;4.10;3.75;;;21.20;99.90;;;;;;4949631;29;20251;-67
2021/07/04 03:21:12;;;;;;;5.53;4.47;;;21.10;99.90;;;;;;4951106;28;20581;-67
2021/07/04 03:23:40;;;;;;;6.18;5.40;;;21.10;99.90;;;;;;4950571;28;20551;-67
2021/07/04 03:26:10;;;;;;;4.70;4.30;;;21.10;99.90;;;;;;4950500;29;20205;-67
2021/07/04 03:28:38;;;;;;;4.88;4.47;;;21.00;99.90;;;;;;4944670;28;20539;-67
2021/07/04 03:31:20;;;;;;;4.88;4.47;;;21.00;99.90;;;;;;4962627;28;20272;-67
2021/07/04 03:33:51;;;;;;;5.22;4.70;;;21.00;99.90;;;;;;4949629;28;20253;-67
2021/07/04 03:36:19;;;;;;;3.92;3.63;;;21.00;99.90;;;;;;4966977;28;20720;-67
2021/07/04 03:38:47;;;;;;;4.80;4.40;;;21.00;99.90;;;;;;4949880;28;20205;-67
2021/07/04 03:41:14;;;;;;;5.18;4.68;;;21.00;99.90;;;;;;4966932;28;20232;-67
2021/07/04 03:43:44;;;;;;;5.80;4.13;;;20.90;99.90;;;;;;4945046;29;20216;-67
2021/07/04 03:46:11;;;;;;;4.15;3.85;;;20.90;99.90;;;;;;4951782;29;20209;-67
2021/07/04 03:48:43;;;;;;;4.30;3.90;;;20.90;99.90;;;;;;4965084;28;20209;-67
2021/07/04 03:51:27;;;;;;;4.00;3.70;;;21.00;99.90;;;;;;4967019;28;20205;-68
2021/07/04 03:53:58;;;;;;;4.03;3.72;;;21.00;99.90;;;;;;4945019;28;20227;-68
2021/07/04 03:56:25;;;;;;;4.38;3.97;;;21.00;99.90;;;;;;4950405;28;20227;-67
2021/07/04 03:58:54;;;;;;;4.35;4.03;;;21.00;99.90;;;;;;4951515;28;20197;-67
2021/07/04 04:01:23;;;;;;;4.40;4.00;;;21.00;99.90;;;;;;4950029;28;20251;-67
2021/07/04 04:03:52;;;;;;;5.38;4.90;;;21.00;99.90;;;;;;4947636;29;20205;-67
2021/07/04 04:06:20;;;;;;;5.95;5.43;;;21.00;99.90;;;;;;4951114;28;20201;-67
2021/07/04 04:08:55;;;;;;;4.55;4.15;;;21.00;99.90;;;;;;4964567;28;20765;-67
2021/07/04 04:11:31;;;;;;;5.90;5.30;;;21.00;99.90;;;;;;4951611;29;20212;-67
2021/07/04 04:14:07;;;;;;;5.57;4.90;;;21.00;99.90;;;;;;4965808;28;20578;-67
2021/07/04 04:16:35;;;;;;;5.45;4.95;;;21.00;99.90;;;;;;4948468;28;20629;-67
2021/07/04 04:19:03;;;;;;;4.25;3.95;;;21.00;99.90;;;;;;4951182;29;20292;-67
2021/07/04 04:21:31;;;;;;;5.35;4.82;;;21.00;99.90;;;;;;4950089;28;20213;-68
2021/07/04 04:24:05;;;;;;;5.03;4.63;;;20.90;99.90;;;;;;4951263;28;20202;-67
2021/07/04 04:26:32;;;;;;;4.30;4.00;;;20.90;99.90;;;;;;4956276;28;20312;-67
2021/07/04 04:29:00;;;;;;;4.20;3.90;;;21.00;99.90;;;;;;4949459;28;20291;-67
2021/07/04 04:31:28;;;;;;;3.80;3.50;;;21.00;99.90;;;;;;4965317;28;20800;-67
2021/07/04 04:33:57;;;;;;;3.92;3.63;;;21.10;99.90;;;;;;4965674;28;20320;-67
2021/07/04 04:36:24;;;;;;;3.88;3.60;;;21.20;99.90;;;;;;4951420;28;20565;-67
2021/07/04 04:38:51;;;;;;;3.40;3.20;;;21.20;99.90;;;;;;4951268;29;20282;-67
2021/07/04 04:41:19;;;;;;;3.95;3.65;;;21.40;99.90;;;;;;4966298;28;20703;-67
2021/07/04 04:43:46;;;;;;;3.83;3.53;;;21.50;99.90;;;;;;4945334;29;20197;-67
2021/07/04 04:46:14;;;;;;;3.72;3.47;;;21.70;99.90;;;;;;4950803;29;20292;-67
2021/07/04 04:48:43;;;;;;;3.58;3.28;;;21.80;99.90;;;;;;4950169;28;20205;-67
2021/07/04 04:51:10;;;;;;;3.85;3.55;;;22.00;99.90;;;;;;4968497;28;20197;-67
2021/07/04 04:53:37;;;;;;;3.85;3.55;;;22.10;99.90;;;;;;4950187;28;20224;-66
2021/07/04 04:56:04;;;;;;;3.55;3.25;;;22.10;99.90;;;;;;4954842;28;20208;-66
2021/07/04 04:58:33;;;;;;;4.18;3.85;;;22.20;99.90;;;;;;4948014;29;20582;-65
2021/07/04 05:00:59;;;;;;;9.05;3.40;;;22.30;99.90;;;;;;4953299;29;20197;-66
2021/07/04 05:03:27;;;;;;;3.50;3.10;;;22.30;99.90;;;;;;4952152;28;20201;-66
2021/07/04 05:05:53;;;;;;;3.53;3.33;;;22.30;99.90;;;;;;4954655;29;20276;-66
2021/07/04 05:08:20;;;;;;;3.95;3.30;;;22.40;99.90;;;;;;4954177;29;20717;-67
2021/07/04 05:10:47;;;;;;;3.53;3.22;;;22.50;99.90;;;;;;4954898;28;20239;-67
2021/07/04 05:13:15;;;;;;;3.60;3.30;;;22.60;99.90;;;;;;4968854;28;20247;-67
2021/07/04 05:15:43;;;;;;;3.60;3.30;;;22.70;99.90;;;;;;4953785;29;20553;-67
2021/07/04 05:18:10;;;;;;;3.10;2.90;;;22.80;99.90;;;;;;4951833;29;20209;-66
2021/07/04 05:20:37;;;;;;;3.33;3.13;;;22.90;99.90;;;;;;4954427;28;20224;-66
2021/07/04 05:23:04;;;;;;;3.28;3.08;;;23.00;99.90;;;;;;4953664;29;20199;-67
2021/07/04 05:25:32;;;;;;;3.45;3.22;;;23.10;99.90;;;;;;4953104;28;20247;-66
2021/07/04 05:27:59;;;;;;;3.30;3.10;;;23.20;99.90;;;;;;4951583;28;20205;-66
2021/07/04 05:30:26;;;;;;;3.70;3.40;;;23.20;99.90;;;;;;4946626;28;20644;-66
2021/07/04 05:32:54;;;;;;;3.33;3.13;;;23.30;99.90;;;;;;4953245;29;20312;-66
2021/07/04 05:35:21;;;;;;;2.88;2.67;;;23.40;99.90;;;;;;4953571;29;20285;-66
2021/07/04 05:37:48;;;;;;;3.08;2.88;;;23.50;99.90;;;;;;4953462;28;20217;-66
2021/07/04 05:40:16;;;;;;;3.38;3.17;;;23.60;99.90;;;;;;4954234;29;20284;-65
2021/07/04 05:42:44;;;;;;;3.10;2.90;;;23.80;99.90;;;;;;4952594;28;20308;-67
2021/07/04 05:45:17;;;;;;;3.42;3.20;;;23.90;99.90;;;;;;4947241;29;20274;-67
2021/07/04 05:47:44;;;;;;;3.10;2.90;;;24.00;99.90;;;;;;4949014;28;20719;-67
2021/07/04 05:50:13;;;;;;;3.20;3.00;;;24.10;99.90;;;;;;4953504;28;20197;-67
2021/07/04 05:52:40;;;;;;;3.33;3.10;;;24.30;99.90;;;;;;4966843;28;20574;-67
2021/07/04 05:55:08;;;;;;;3.65;3.35;;;24.50;99.90;;;;;;4944983;29;20556;-67
2021/07/04 05:57:34;;;;;;;3.95;3.60;;;24.70;99.90;;;;;;4953587;29;20197;-67
2021/07/04 06:00:02;;;;;;;3.20;3.00;;;24.90;99.90;;;;;;4953215;28;20194;-67
2021/07/04 06:02:28;;;;;;;4.00;3.70;;;25.10;99.90;;;;;;4951947;28;20213;-67
2021/07/04 06:04:55;;;;;;;4.07;3.78;;;25.30;99.90;;;;;;4953517;29;20196;-68
2021/07/04 06:07:24;;;;;;;3.83;3.53;;;25.30;99.90;;;;;;4953703;29;20280;-68
2021/07/04 06:09:51;;;;;;;3.33;3.13;;;25.40;99.90;;;;;;4947572;29;20211;-66
2021/07/04 06:12:18;;;;;;;3.70;3.40;;;25.40;99.90;;;;;;4952322;29;20618;-66
2021/07/04 06:14:44;;;;;;;3.70;3.50;;;25.30;99.90;;;;;;4953048;29;20225;-66
2021/07/04 06:17:11;;;;;;;3.80;3.50;;;25.40;99.90;;;;;;4951961;29;20223;-67
2021/07/04 06:19:38;;;;;;;3.45;3.25;;;25.40;99.90;;;;;;4951125;29;20209;-66
2021/07/04 06:22:05;;;;;;;3.58;3.38;;;25.40;99.90;;;;;;4953328;29;20233;-66
2021/07/04 06:24:34;;;;;;;3.13;2.92;;;25.40;99.90;;;;;;4953107;29;20288;-66
2021/07/04 06:27:01;;;;;;;2.92;2.80;;;25.30;99.90;;;;;;4952778;28;20221;-66
2021/07/04 06:29:28;;;;;;;3.13;2.92;;;25.30;99.90;;;;;;4952177;29;20669;-66
2021/07/04 06:31:55;;;;;;;3.28;3.08;;;25.30;99.90;;;;;;4951965;29;20255;-66
2021/07/04 06:34:22;;;;;;;3.30;3.10;;;25.20;99.90;;;;;;4952573;29;20225;-67
2021/07/04 06:36:48;;;;;;;3.30;3.10;;;25.20;99.90;;;;;;4952783;29;20653;-68
2021/07/04 06:39:15;;;;;;;3.20;3.00;;;25.10;99.90;;;;;;4952520;29;20280;-67
2021/07/04 06:41:44;;;;;;;2.95;2.72;;;25.10;99.90;;;;;;4943030;29;20728;-66
2021/07/04 06:44:11;;;;;;;3.42;3.13;;;25.00;99.90;;;;;;4943643;28;20670;-67
2021/07/04 06:46:38;;;;;;;4.43;3.83;;;25.00;99.90;;;;;;4951747;28;20548;-67
2021/07/04 06:49:05;;;;;;;4.20;3.90;;;25.00;99.90;;;;;;4966406;28;20209;-65
2021/07/04 06:51:31;;;;;;;3.42;3.22;;;25.00;99.90;;;;;;4967461;28;20660;-66
2021/07/04 06:53:58;;;;;;;3.65;3.35;;;24.90;99.90;;;;;;4941470;29;20221;-66
2021/07/04 06:56:25;;;;;;;3.40;3.20;;;24.90;99.90;;;;;;4953100;28;20208;-66
2021/07/04 06:58:54;;;;;;;3.22;3.03;;;24.90;99.90;;;;;;4950427;28;20694;-65
2021/07/04 07:01:21;;;;;;;2.58;2.47;;;24.80;99.90;;;;;;4952085;28;20193;-67
2021/07/04 07:03:47;;;;;;;2.60;2.50;;;24.80;99.90;;;;;;4950156;29;20312;-67
2021/07/04 07:06:14;;;;;;;2.80;2.70;;;24.90;99.90;;;;;;4941639;29;20206;-67
2021/07/04 07:08:42;;;;;;;2.70;2.50;;;24.90;99.90;;;;;;4952661;29;20217;-67
2021/07/04 07:11:09;;;;;;;2.90;2.70;;;24.90;99.90;;;;;;4952642;29;20204;-67
2021/07/04 07:13:36;;;;;;;2.88;2.67;;;25.00;99.90;;;;;;4951446;28;20225;-67
2021/07/04 07:16:05;;;;;;;2.97;2.78;;;24.90;99.90;;;;;;4951741;28;20216;-67
2021/07/04 07:18:32;;;;;;;3.08;2.88;;;24.90;99.90;;;;;;4950529;28;20290;-66
2021/07/04 07:20:59;;;;;;;2.72;2.60;;;24.80;99.90;;;;;;4952136;29;20209;-66
2021/07/04 07:23:26;;;;;;;3.08;2.88;;;24.80;99.90;;;;;;4951824;29;20204;-68
2021/07/04 07:25:55;;;;;;;2.80;2.70;;;24.80;99.90;;;;;;4951626;29;20311;-67
2021/07/04 07:28:23;;;;;;;2.60;2.50;;;24.90;99.90;;;;;;4950068;28;20207;-67
2021/07/04 07:31:10;;;;;;;2.25;2.15;;;24.90;99.90;;;;;;4966253;28;20260;-66
2021/07/04 07:33:37;;;;;;;3.00;2.72;;;25.00;99.90;;;;;;4959873;28;20573;-67
2021/07/04 07:36:06;;;;;;;3.03;2.80;;;25.00;99.90;;;;;;4950469;28;20213;-67
2021/07/04 07:38:33;;;;;;;2.58;2.47;;;25.10;99.90;;;;;;4951071;29;20569;-68
2021/07/04 07:41:00;;;;;;;2.65;2.55;;;25.20;99.90;;;;;;4966128;28;20772;-66
2021/07/04 07:43:27;;;;;;;2.58;2.40;;;25.40;99.90;;;;;;4946418;28;20214;-66
2021/07/04 07:45:56;;;;;;;2.72;2.53;;;25.60;99.90;;;;;;4966005;28;20201;-68
2021/07/04 07:48:25;;;;;;;3.38;3.17;;;25.90;99.90;;;;;;4950018;29;20298;-67
2021/07/04 07:51:06;;;;;;;2.83;2.63;;;26.10;99.90;;;;;;4966243;28;20217;-66
2021/07/04 07:53:34;;;;;;;3.38;3.13;;;26.50;99.90;;;;;;4957288;28;20226;-67
2021/07/04 07:56:01;;;;;;;3.55;3.33;;;26.70;99.90;;;;;;4949998;29;20203;-67
2021/07/04 07:58:44;;;;;;;3.13;2.92;;;26.90;99.90;;;;;;4950338;29;20227;-67
2021/07/04 08:01:14;;;;;;;3.03;2.80;;;27.10;99.90;;;;;;4950012;29;20207;-67
2021/07/04 08:03:42;;;;;;;4.13;2.95;;;27.30;99.90;;;;;;4949887;29;20283;-67
2021/07/04 08:06:09;;;;;;;2.95;2.75;;;27.50;99.90;;;;;;4966671;28;20240;-67
2021/07/04 08:08:37;;;;;;;3.22;3.03;;;27.70;99.90;;;;;;4945405;28;20219;-67
2021/07/04 08:11:04;;;;;;;3.53;3.22;;;27.80;99.90;;;;;;4951781;29;20204;-67
2021/07/04 08:13:31;;;;;;;3.40;3.20;;;27.90;99.90;;;;;;4951403;29;20674;-67
2021/07/04 08:15:58;;;;;;;3.15;2.63;;;28.10;99.90;;;;;;4951158;29;20205;-68
2021/07/04 08:18:25;;;;;;;3.80;3.50;;;28.30;99.90;;;;;;4949804;28;20283;-66
2021/07/04 08:20:54;;;;;;;3.45;3.25;;;28.50;99.90;;;;;;4951531;29;20685;-67
2021/07/04 08:23:21;;;;;;;3.45;3.15;;;28.70;99.90;;;;;;4951179;28;20201;-67
2021/07/04 08:25:48;;;;;;;3.40;3.20;;;28.90;99.90;;;;;;4953341;28;20232;-67
2021/07/04 08:28:17;;;;;;;3.60;3.40;;;29.00;99.90;;;;;;4954440;28;20229;-68
2021/07/04 08:30:44;;;;;;;2.88;2.78;;;29.30;99.90;;;;;;4954662;28;20779;-67
2021/07/04 08:33:11;;;;;;;3.15;2.90;;;29.40;99.40;;;;;;4953904;29;20193;-66
2021/07/04 08:35:38;;;;;;;3.13;2.92;;;29.60;98.80;;;;;;4954682;29;20567;-67
2021/07/04 08:38:07;;;;;;;2.63;2.53;;;29.70;98.20;;;;;;4954603;29;20201;-68
2021/07/04 08:40:34;;;;;;;3.03;2.85;;;29.80;98.20;;;;;;4954952;28;20232;-67
2021/07/04 08:43:02;;;;;;;2.65;2.55;;;29.80;97.50;;;;;;4952326;29;20211;-66
2021/07/04 08:45:29;;;;;;;4.00;3.70;;;30.00;97.10;;;;;;4948633;29;20209;-67
2021/07/04 08:47:59;;;;;;;3.10;2.90;;;30.10;96.20;;;;;;4953775;29;20197;-67
2021/07/04 08:50:26;;;;;;;3.10;2.88;;;30.30;95.80;;;;;;4954530;29;20194;-67
2021/07/04 08:52:53;;;;;;;3.08;2.92;;;30.50;95.30;;;;;;4951231;29;20284;-67
2021/07/04 08:55:21;;;;;;;3.05;2.92;;;30.60;94.90;;;;;;4961928;28;20228;-67
2021/07/04 08:57:49;;;;;;;3.60;3.40;;;30.80;94.20;;;;;;4952776;28;20283;-67
2021/07/04 09:00:17;;;;;;;3.90;3.60;;;31.00;93.50;;;;;;4954737;28;20208;-67
2021/07/04 09:02:44;;;;;;;3.63;3.40;;;31.00;92.90;;;;;;4953887;28;20200;-66
2021/07/04 09:05:14;;;;;;;3.05;2.95;;;31.00;92.50;;;;;;4954164;28;20208;-66
2021/07/04 09:07:42;;;;;;;3.63;3.42;;;31.10;92.10;;;;;;4954708;29;20201;-66
2021/07/04 09:10:11;;;;;;;3.33;3.13;;;31.30;91.80;;;;;;4954175;28;20213;-67
2021/07/04 09:12:41;;;;;;;3.50;3.30;;;31.40;91.10;;;;;;4954631;29;20284;-66
2021/07/04 09:15:11;;;;;;;3.67;3.42;;;31.50;90.80;;;;;;4952557;29;20221;-67
2021/07/04 09:17:41;;;;;;;3.20;3.00;;;31.60;90.20;;;;;;4952660;29;20214;-67
2021/07/04 09:20:11;;;;;;;3.65;3.45;;;31.60;90.00;;;;;;4953746;28;20690;-67
2021/07/04 09:22:40;;;;;;;3.55;3.30;;;31.70;88.60;;;;;;4954051;29;20313;-66
2021/07/04 09:25:10;;;;;;;3.33;3.13;;;31.80;87.10;;;;;;4954374;29;20285;-66
2021/07/04 09:27:38;;;;;;;3.20;3.08;;;31.90;86.50;;;;;;4952952;28;20225;-66
2021/07/04 09:30:11;;;;;;;3.97;3.35;;;32.00;85.00;;;;;;4951782;29;20218;-66
2021/07/04 09:32:39;;;;;;;3.30;3.10;;;32.10;84.30;;;;;;4967936;28;20228;-67
2021/07/04 09:35:10;;;;;;;3.75;3.42;;;32.30;83.30;;;;;;4951990;29;20225;-67
2021/07/04 09:37:39;;;;;;;3.40;3.17;;;32.50;82.40;;;;;;4967618;28;20205;-67
2021/07/04 09:40:19;;;;;;;3.22;3.10;;;32.70;81.70;;;;;;4941749;29;20660;-66
2021/07/04 09:43:07;;;;;;;3.70;3.40;;;32.90;80.80;;;;;;4953735;29;20201;-67
2021/07/04 09:45:45;;;;;;;3.00;2.80;;;33.00;79.30;;;;;;4945901;29;20197;-67
2021/07/04 09:48:13;;;;;;;4.53;3.83;;;33.00;77.70;;;;;;4952719;29;20212;-67
2021/07/04 09:50:42;;;;;;;3.90;3.70;;;32.90;77.10;;;;;;4953869;29;20413;-65
2021/07/04 09:53:09;;;;;;;3.30;3.15;;;32.80;76.50;;;;;;4947761;29;20202;-67
2021/07/04 09:55:37;;;;;;;3.65;3.35;;;32.80;75.50;;;;;;4948269;29;20236;-67
2021/07/04 09:58:06;;;;;;;3.63;3.33;;;32.80;74.70;;;;;;4953212;28;20233;-67
2021/07/04 10:00:35;;;;;;;4.57;4.28;;;32.80;74.50;;;;;;4952947;29;20197;-66
2021/07/04 10:03:22;;;;;;;4.88;4.45;;;32.90;74.20;;;;;;4941756;28;20576;-67
2021/07/04 10:06:04;;;;;;;4.53;4.32;;;32.90;74.20;;;;;;4953841;28;20677;-67
2021/07/04 10:08:33;;;;;;;4.65;4.35;;;32.90;74.30;;;;;;4946912;29;20202;-66
2021/07/04 10:11:02;;;;;;;4.20;3.90;;;33.00;74.50;;;;;;4953226;28;20662;-67
2021/07/04 10:13:31;;;;;;;5.15;4.85;;;32.80;74.50;;;;;;4953437;29;20201;-67
2021/07/04 10:15:58;;;;;;;5.50;5.07;;;32.60;74.00;;;;;;4951931;29;20401;-67
2021/07/04 10:18:27;;;;;;;5.63;5.10;;;32.40;74.60;;;;;;4952221;29;20222;-66
2021/07/04 10:20:55;;;;;;;5.70;5.30;;;32.30;75.10;;;;;;4953039;29;20201;-68
2021/07/04 10:23:25;;;;;;;5.50;5.00;;;32.30;75.30;;;;;;4952815;28;20217;-67
2021/07/04 10:25:54;;;;;;;5.25;4.75;;;32.20;75.10;;;;;;4953415;29;20601;-67
2021/07/04 10:28:27;;;;;;;5.82;5.28;;;32.30;75.40;;;;;;4951390;28;20724;-68
2021/07/04 10:30:54;;;;;;;4.80;4.50;;;32.30;75.80;;;;;;4952452;28;20299;-66
2021/07/04 10:33:23;;;;;;;5.35;5.05;;;32.40;75.10;;;;;;4951399;29;20201;-68
2021/07/04 10:36:04;;;;;;;5.25;4.85;;;32.40;74.70;;;;;;4967797;28;20303;-68
2021/07/04 10:38:57;;;;;;;6.45;5.85;;;32.40;73.70;;;;;;4952446;29;20736;-67
2021/07/04 10:41:30;;;;;;;5.38;4.88;;;32.30;73.50;;;;;;4949672;29;20235;-66
2021/07/04 10:44:00;;;;;;;5.53;5.13;;;32.20;73.50;;;;;;4943195;29;20620;-66
2021/07/04 10:47:08;;;;;;;6.97;5.55;;;32.20;73.40;;;;;;4950578;29;20716;-66
2021/07/04 10:49:40;;;;;;;5.68;5.28;;;32.20;73.20;;;;;;4951368;28;20692;-66
2021/07/04 10:52:20;;;;;;;5.88;5.35;;;32.10;73.90;;;;;;4952269;29;20206;-67
2021/07/04 10:54:57;;;;;;;5.18;4.78;;;32.00;74.00;;;;;;4940963;28;20260;-66
2021/07/04 10:57:33;;;;;;;6.15;5.45;;;31.90;74.40;;;;;;4951830;28;20225;-66
2021/07/04 11:00:24;;;;;;;5.65;5.25;;;32.00;73.70;;;;;;4951806;29;20205;-66
2021/07/04 11:02:54;;;;;;;5.60;5.15;;;32.00;73.70;;;;;;4950771;28;20201;-66
2021/07/04 11:05:47;;;;;;;5.32;4.93;;;32.00;73.30;;;;;;4952347;28;20190;-67
2021/07/04 11:08:27;;;;;;;5.00;4.60;;;31.90;73.20;;;;;;4952153;29;20232;-67
2021/07/04 11:11:14;;;;;;;5.55;5.15;;;31.90;73.40;;;;;;4949757;28;20215;-66
2021/07/04 11:13:47;;;;;;;6.43;5.82;;;31.80;73.30;;;;;;4952249;29;20238;-67
2021/07/04 11:16:23;;;;;;;6.05;5.55;;;31.60;73.20;;;;;;4952181;29;20229;-67
2021/07/04 11:18:54;;;;;;;5.03;4.63;;;31.30;74.00;;;;;;4951265;29;20193;-67
2021/07/04 11:21:24;;;;;;;5.80;5.40;;;31.10;75.10;;;;;;4945283;29;20679;-67
2021/07/04 11:24:18;;;;;;;5.07;4.72;;;31.00;75.70;;;;;;4950876;28;20622;-67
2021/07/04 11:27:14;;;;;;;5.55;5.07;;;30.90;76.30;;;;;;4952250;29;20201;-67
2021/07/04 11:30:30;;;;;;;5.60;5.20;;;30.80;76.50;;;;;;4949631;28;20224;-66
2021/07/04 11:33:31;;;;;;;5.85;5.10;;;30.80;77.00;;;;;;4911065;29;20206;-66
2021/07/04 11:36:04;;;;;;;5.55;5.10;;;30.80;77.50;;;;;;4911317;29;20238;-66
2021/07/04 11:38:33;;;;;;;6.70;6.07;;;30.80;77.60;;;;;;4911377;29;20217;-67
2021/07/04 11:41:02;;;;;;;5.68;5.28;;;30.80;78.00;;;;;;4910347;29;20269;-66
2021/07/04 11:43:30;;;;;;;4.82;4.43;;;30.70;78.80;;;;;;4910950;29;20210;-67
2021/07/04 11:46:00;;;;;;;5.63;5.00;;;30.80;78.50;;;;;;4911142;29;20687;-66
2021/07/04 11:48:47;;;;;;;4.72;4.43;;;30.80;79.00;;;;;;4909909;29;20211;-67
2021/07/04 11:51:26;;;;;;;5.53;5.03;;;30.90;79.80;;;;;;4910873;29;20218;-66
2021/07/04 11:53:54;;;;;;;5.18;4.82;;;31.20;80.10;;;;;;4884618;29;20711;-67
2021/07/04 11:56:23;;;;;;;5.82;4.90;;;31.50;79.60;;;;;;4911095;29;20227;-66
2021/07/04 11:58:50;;;;;;;6.38;4.90;;;31.80;78.80;;;;;;4910619;29;20574;-66
2021/07/04 12:01:19;;;;;;;5.43;5.10;;;32.10;78.50;;;;;;4903706;29;20219;-66
2021/07/04 12:03:54;;;;;;;4.75;4.45;;;32.50;77.70;;;;;;4909847;29;20687;-66
2021/07/04 12:06:22;;;;;;;5.43;5.03;;;32.60;77.00;;;;;;4907775;29;20204;-66
2021/07/04 12:08:58;;;;;;;4.97;4.65;;;32.80;77.00;;;;;;4944820;29;20205;-66
2021/07/04 12:11:44;;;;;;;5.47;4.97;;;32.80;76.40;;;;;;4942504;28;20605;-66
2021/07/04 12:14:39;;;;;;;5.38;4.93;;;32.70;76.50;;;;;;4951404;28;20201;-67
2021/07/04 12:17:19;;;;;;;5.90;5.30;;;32.50;76.00;;;;;;4950507;28;20672;-65
2021/07/04 12:19:51;;;;;;;4.53;4.22;;;32.40;75.70;;;;;;4951120;28;20201;-66
2021/07/04 12:22:22;;;;;;;5.05;4.75;;;32.10;75.70;;;;;;4946432;29;20606;-66
2021/07/04 12:24:52;;;;;;;5.40;4.90;;;32.10;76.10;;;;;;4951557;29;20293;-67
2021/07/04 12:27:33;;;;;;;5.10;4.70;;;32.10;75.70;;;;;;4951638;29;20216;-68
2021/07/04 12:30:13;;;;;;;5.40;4.90;;;31.90;75.90;;;;;;4947634;28;20208;-67
2021/07/04 12:32:44;;;;;;;6.50;5.35;;;31.70;76.20;;;;;;4950690;29;20377;-65
2021/07/04 12:35:23;;;;;;;6.25;5.72;;;31.50;76.50;;;;;;4950888;29;20217;-66
2021/07/04 12:37:52;;;;;;;6.30;5.53;;;31.20;77.50;;;;;;4951513;29;20557;-68
2021/07/04 12:40:21;;;;;;;6.65;5.53;;;30.80;78.20;;;;;;4950817;28;20255;-67
2021/07/04 12:42:50;;;;;;;5.80;5.40;;;30.40;79.30;;;;;;4950613;29;20233;-67
2021/07/04 12:45:20;;;;;;;5.28;4.78;;;30.10;80.80;;;;;;4957175;28;20236;-67
2021/07/04 12:48:02;;;;;;;6.78;4.80;;;29.80;81.90;;;;;;4950517;29;20198;-66
2021/07/04 12:50:44;;;;;;;5.78;5.15;;;29.60;82.80;;;;;;4951006;29;20749;-67
2021/07/04 12:53:12;;;;;;;6.13;5.55;;;29.40;84.30;;;;;;4945336;28;20285;-67
2021/07/04 12:55:41;;;;;;;5.82;5.25;;;29.00;85.50;;;;;;4946136;28;20225;-67
2021/07/04 12:58:31;;;;;;;5.72;5.22;;;28.80;86.50;;;;;;4941553;28;20216;-67
2021/07/04 13:01:15;;;;;;;5.82;5.32;;;28.60;87.80;;;;;;4950635;29;20213;-67
2021/07/04 13:03:45;;;;;;;6.30;5.70;;;28.40;89.70;;;;;;4948033;28;20614;-67
2021/07/04 13:06:51;;;;;;;5.70;5.20;;;28.20;90.00;;;;;;4951117;29;20221;-67